sensor_id;sensor_type;location;lat;lon;timestamp;P1;durP1;ratioP1;P2;durP2;ratioP2
49175;SDS011;35012;47.200;9.748;2024-02-23T00:01:04;1.23;;;1.23;;
49175;SDS011;35012;47.200;9.748;2024-02-23T00:03:30;1.33;;;1.33;;
49175;SDS011;35012;47.200;9.748;2024-02-23T00:05:55;1.50;;;1.50;;
49175;SDS011;35012;47.200;9.748;2024-02-23T00:08:21;1.40;;;1.40;;
49175;SDS011;35012;47.200;9.748;2024-02-23T00:10:46;1.40;;;1.40;;
49175;SDS011;35012;47.200;9.748;2024-02-23T00:13:12;1.30;;;1.30;;
49175;SDS011;35012;47.200;9.748;2024-02-23T00:15:38;1.43;;;1.43;;
49175;SDS011;35012;47.200;9.748;2024-02-23T00:18:04;1.33;;;1.33;;
49175;SDS011;35012;47.200;9.748;2024-02-23T00:20:29;1.50;;;1.50;;
49175;SDS011;35012;47.200;9.748;2024-02-23T00:22:55;1.20;;;1.20;;
49175;SDS011;35012;47.200;9.748;2024-02-23T00:25:20;1.50;;;1.50;;
49175;SDS011;35012;47.200;9.748;2024-02-23T00:27:48;1.40;;;1.40;;
49175;SDS011;35012;47.200;9.748;2024-02-23T00:30:14;1.33;;;1.33;;
49175;SDS011;35012;47.200;9.748;2024-02-23T00:32:39;1.40;;;1.40;;
49175;SDS011;35012;47.200;9.748;2024-02-23T00:35:06;1.33;;;1.33;;
49175;SDS011;35012;47.200;9.748;2024-02-23T00:37:32;1.40;;;1.40;;
49175;SDS011;35012;47.200;9.748;2024-02-23T00:40:04;1.40;;;1.40;;
49175;SDS011;35012;47.200;9.748;2024-02-23T00:42:30;1.10;;;1.10;;
49175;SDS011;35012;47.200;9.748;2024-02-23T00:44:56;1.10;;;1.10;;
49175;SDS011;35012;47.200;9.748;2024-02-23T00:47:21;1.40;;;1.40;;
49175;SDS011;35012;47.200;9.748;2024-02-23T00:49:47;1.50;;;1.50;;
49175;SDS011;35012;47.200;9.748;2024-02-23T00:52:12;1.50;;;1.50;;
49175;SDS011;35012;47.200;9.748;2024-02-23T00:54:39;1.33;;;1.33;;
49175;SDS011;35012;47.200;9.748;2024-02-23T00:57:05;1.10;;;1.10;;
49175;SDS011;35012;47.200;9.748;2024-02-23T00:59:30;1.10;;;1.10;;
49175;SDS011;35012;47.200;9.748;2024-02-23T01:01:56;1.10;;;1.10;;
49175;SDS011;35012;47.200;9.748;2024-02-23T01:04:21;1.30;;;1.30;;
49175;SDS011;35012;47.200;9.748;2024-02-23T01:06:47;1.40;;;1.40;;
49175;SDS011;35012;47.200;9.748;2024-02-23T01:09:13;1.10;;;1.10;;
49175;SDS011;35012;47.200;9.748;2024-02-23T01:11:38;1.33;;;1.33;;
49175;SDS011;35012;47.200;9.748;2024-02-23T01:14:04;1.10;;;1.10;;
49175;SDS011;35012;47.200;9.748;2024-02-23T01:16:31;1.40;;;1.40;;
49175;SDS011;35012;47.200;9.748;2024-02-23T01:18:57;1.10;;;1.10;;
49175;SDS011;35012;47.200;9.748;2024-02-23T01:21:23;1.40;;;1.40;;
49175;SDS011;35012;47.200;9.748;2024-02-23T01:23:48;1.40;;;1.40;;
49175;SDS011;35012;47.200;9.748;2024-02-23T01:26:14;1.50;;;1.50;;
49175;SDS011;35012;47.200;9.748;2024-02-23T01:28:40;1.30;;;1.30;;
49175;SDS011;35012;47.200;9.748;2024-02-23T01:31:08;1.10;;;1.10;;
49175;SDS011;35012;47.200;9.748;2024-02-23T01:33:36;1.40;;;1.40;;
49175;SDS011;35012;47.200;9.748;2024-02-23T01:36:04;1.33;;;1.33;;
49175;SDS011;35012;47.200;9.748;2024-02-23T01:38:30;1.20;;;1.20;;
49175;SDS011;35012;47.200;9.748;2024-02-23T01:40:58;1.50;;;1.50;;
49175;SDS011;35012;47.200;9.748;2024-02-23T01:43:24;1.30;;;1.30;;
49175;SDS011;35012;47.200;9.748;2024-02-23T01:45:49;1.40;;;1.40;;
49175;SDS011;35012;47.200;9.748;2024-02-23T01:48:15;1.30;;;1.30;;
49175;SDS011;35012;47.200;9.748;2024-02-23T01:50:41;1.70;;;1.70;;
49175;SDS011;35012;47.200;9.748;2024-02-23T01:53:08;1.60;;;1.60;;
49175;SDS011;35012;47.200;9.748;2024-02-23T01:55:35;1.60;;;1.60;;
49175;SDS011;35012;47.200;9.748;2024-02-23T01:58:00;1.67;;;1.67;;
49175;SDS011;35012;47.200;9.748;2024-02-23T02:00:26;1.60;;;1.60;;
49175;SDS011;35012;47.200;9.748;2024-02-23T02:02:52;1.70;;;1.70;;
49175;SDS011;35012;47.200;9.748;2024-02-23T02:05:17;1.80;;;1.80;;
49175;SDS011;35012;47.200;9.748;2024-02-23T02:07:43;1.70;;;1.70;;
49175;SDS011;35012;47.200;9.748;2024-02-23T02:10:10;1.80;;;1.80;;
49175;SDS011;35012;47.200;9.748;2024-02-23T02:12:36;2.00;;;1.90;;
49175;SDS011;35012;47.200;9.748;2024-02-23T02:15:02;1.80;;;1.80;;
49175;SDS011;35012;47.200;9.748;2024-02-23T02:17:28;1.80;;;1.80;;
49175;SDS011;35012;47.200;9.748;2024-02-23T02:19:54;1.90;;;1.90;;
49175;SDS011;35012;47.200;9.748;2024-02-23T02:22:20;2.87;;;2.77;;
49175;SDS011;35012;47.200;9.748;2024-02-23T02:24:45;2.13;;;2.03;;
49175;SDS011;35012;47.200;9.748;2024-02-23T02:27:13;1.93;;;1.93;;
49175;SDS011;35012;47.200;9.748;2024-02-23T02:29:39;1.90;;;1.90;;
49175;SDS011;35012;47.200;9.748;2024-02-23T02:32:05;2.27;;;2.17;;
49175;SDS011;35012;47.200;9.748;2024-02-23T02:34:31;2.30;;;2.20;;
49175;SDS011;35012;47.200;9.748;2024-02-23T02:36:56;2.40;;;2.30;;
49175;SDS011;35012;47.200;9.748;2024-02-23T02:39:22;2.30;;;2.20;;
49175;SDS011;35012;47.200;9.748;2024-02-23T02:41:48;2.37;;;2.27;;
49175;SDS011;35012;47.200;9.748;2024-02-23T02:44:14;2.23;;;2.13;;
49175;SDS011;35012;47.200;9.748;2024-02-23T02:46:40;2.27;;;2.17;;
49175;SDS011;35012;47.200;9.748;2024-02-23T02:49:06;2.30;;;2.20;;
49175;SDS011;35012;47.200;9.748;2024-02-23T02:51:32;2.23;;;2.13;;
49175;SDS011;35012;47.200;9.748;2024-02-23T02:53:57;2.17;;;2.07;;
49175;SDS011;35012;47.200;9.748;2024-02-23T02:56:23;2.30;;;2.20;;
49175;SDS011;35012;47.200;9.748;2024-02-23T02:58:49;2.30;;;2.20;;
49175;SDS011;35012;47.200;9.748;2024-02-23T03:01:14;2.30;;;2.20;;
49175;SDS011;35012;47.200;9.748;2024-02-23T03:03:40;2.10;;;2.00;;
49175;SDS011;35012;47.200;9.748;2024-02-23T03:06:07;2.30;;;2.20;;
49175;SDS011;35012;47.200;9.748;2024-02-23T03:08:34;2.20;;;2.10;;
49175;SDS011;35012;47.200;9.748;2024-02-23T03:11:00;2.10;;;2.00;;
49175;SDS011;35012;47.200;9.748;2024-02-23T03:13:25;2.10;;;2.00;;
49175;SDS011;35012;47.200;9.748;2024-02-23T03:15:51;2.30;;;2.20;;
49175;SDS011;35012;47.200;9.748;2024-02-23T03:18:17;2.23;;;2.13;;
49175;SDS011;35012;47.200;9.748;2024-02-23T03:20:42;2.30;;;2.20;;
49175;SDS011;35012;47.200;9.748;2024-02-23T03:23:08;2.00;;;1.90;;
49175;SDS011;35012;47.200;9.748;2024-02-23T03:25:34;2.00;;;1.90;;
49175;SDS011;35012;47.200;9.748;2024-02-23T03:27:59;1.90;;;1.90;;
49175;SDS011;35012;47.200;9.748;2024-02-23T03:30:25;2.23;;;2.13;;
49175;SDS011;35012;47.200;9.748;2024-02-23T03:32:51;1.83;;;1.83;;
49175;SDS011;35012;47.200;9.748;2024-02-23T03:35:16;1.80;;;1.80;;
49175;SDS011;35012;47.200;9.748;2024-02-23T03:37:42;1.70;;;1.70;;
49175;SDS011;35012;47.200;9.748;2024-02-23T03:40:08;2.10;;;2.00;;
49175;SDS011;35012;47.200;9.748;2024-02-23T03:42:35;1.80;;;1.80;;
49175;SDS011;35012;47.200;9.748;2024-02-23T03:45:01;1.90;;;1.90;;
49175;SDS011;35012;47.200;9.748;2024-02-23T03:47:27;2.00;;;1.90;;
49175;SDS011;35012;47.200;9.748;2024-02-23T03:49:53;2.13;;;2.03;;
49175;SDS011;35012;47.200;9.748;2024-02-23T03:52:19;2.10;;;2.00;;
49175;SDS011;35012;47.200;9.748;2024-02-23T03:54:45;2.00;;;1.90;;
49175;SDS011;35012;47.200;9.748;2024-02-23T03:57:10;1.70;;;1.70;;
49175;SDS011;35012;47.200;9.748;2024-02-23T03:59:36;2.10;;;2.00;;
49175;SDS011;35012;47.200;9.748;2024-02-23T04:02:03;2.07;;;1.97;;
49175;SDS011;35012;47.200;9.748;2024-02-23T04:04:29;2.20;;;2.10;;
49175;SDS011;35012;47.200;9.748;2024-02-23T04:06:54;1.70;;;1.70;;
49175;SDS011;35012;47.200;9.748;2024-02-23T04:09:20;2.37;;;2.27;;
49175;SDS011;35012;47.200;9.748;2024-02-23T04:11:47;1.80;;;1.80;;
49175;SDS011;35012;47.200;9.748;2024-02-23T04:14:13;1.80;;;1.80;;
49175;SDS011;35012;47.200;9.748;2024-02-23T04:16:39;2.10;;;2.00;;
49175;SDS011;35012;47.200;9.748;2024-02-23T04:19:04;2.23;;;2.13;;
49175;SDS011;35012;47.200;9.748;2024-02-23T04:21:30;2.17;;;2.07;;
49175;SDS011;35012;47.200;9.748;2024-02-23T04:26:43;2.60;;;2.50;;
49175;SDS011;35012;47.200;9.748;2024-02-23T04:29:09;2.23;;;2.13;;
49175;SDS011;35012;47.200;9.748;2024-02-23T04:31:36;2.10;;;2.00;;
49175;SDS011;35012;47.200;9.748;2024-02-23T04:34:02;2.10;;;2.00;;
49175;SDS011;35012;47.200;9.748;2024-02-23T04:36:28;2.17;;;2.07;;
49175;SDS011;35012;47.200;9.748;2024-02-23T04:38:54;2.13;;;2.03;;
49175;SDS011;35012;47.200;9.748;2024-02-23T04:41:20;2.00;;;1.90;;
49175;SDS011;35012;47.200;9.748;2024-02-23T04:43:49;1.80;;;1.80;;
49175;SDS011;35012;47.200;9.748;2024-02-23T04:46:15;2.03;;;1.93;;
49175;SDS011;35012;47.200;9.748;2024-02-23T04:48:41;1.87;;;1.87;;
49175;SDS011;35012;47.200;9.748;2024-02-23T04:51:06;1.80;;;1.80;;
49175;SDS011;35012;47.200;9.748;2024-02-23T04:53:37;1.70;;;1.70;;
49175;SDS011;35012;47.200;9.748;2024-02-23T04:56:03;1.70;;;1.70;;
49175;SDS011;35012;47.200;9.748;2024-02-23T04:58:29;1.60;;;1.60;;
49175;SDS011;35012;47.200;9.748;2024-02-23T05:00:55;1.70;;;1.70;;
49175;SDS011;35012;47.200;9.748;2024-02-23T05:03:21;1.77;;;1.73;;
49175;SDS011;35012;47.200;9.748;2024-02-23T05:05:46;1.60;;;1.60;;
49175;SDS011;35012;47.200;9.748;2024-02-23T05:08:12;1.70;;;1.70;;
49175;SDS011;35012;47.200;9.748;2024-02-23T05:10:37;1.60;;;1.60;;
49175;SDS011;35012;47.200;9.748;2024-02-23T05:13:03;1.70;;;1.70;;
49175;SDS011;35012;47.200;9.748;2024-02-23T05:15:29;1.70;;;1.70;;
49175;SDS011;35012;47.200;9.748;2024-02-23T05:17:54;1.60;;;1.60;;
49175;SDS011;35012;47.200;9.748;2024-02-23T05:20:20;1.80;;;1.80;;
49175;SDS011;35012;47.200;9.748;2024-02-23T05:22:46;1.70;;;1.70;;
49175;SDS011;35012;47.200;9.748;2024-02-23T05:25:11;1.70;;;1.70;;
49175;SDS011;35012;47.200;9.748;2024-02-23T05:27:37;1.70;;;1.70;;
49175;SDS011;35012;47.200;9.748;2024-02-23T05:30:02;1.70;;;1.70;;
49175;SDS011;35012;47.200;9.748;2024-02-23T05:32:29;1.80;;;1.80;;
49175;SDS011;35012;47.200;9.748;2024-02-23T05:34:55;1.90;;;1.80;;
49175;SDS011;35012;47.200;9.748;2024-02-23T05:37:22;1.97;;;1.87;;
49175;SDS011;35012;47.200;9.748;2024-02-23T05:39:47;1.70;;;1.70;;
49175;SDS011;35012;47.200;9.748;2024-02-23T05:42:13;2.07;;;1.97;;
49175;SDS011;35012;47.200;9.748;2024-02-23T05:44:39;2.10;;;2.00;;
49175;SDS011;35012;47.200;9.748;2024-02-23T05:47:05;1.70;;;1.70;;
49175;SDS011;35012;47.200;9.748;2024-02-23T05:49:31;1.70;;;1.70;;
49175;SDS011;35012;47.200;9.748;2024-02-23T05:51:56;2.10;;;2.00;;
49175;SDS011;35012;47.200;9.748;2024-02-23T05:54:22;2.20;;;2.10;;
49175;SDS011;35012;47.200;9.748;2024-02-23T05:56:48;1.87;;;1.87;;
49175;SDS011;35012;47.200;9.748;2024-02-23T05:59:14;2.00;;;1.90;;
49175;SDS011;35012;47.200;9.748;2024-02-23T06:01:40;1.80;;;1.80;;
49175;SDS011;35012;47.200;9.748;2024-02-23T06:04:05;1.80;;;1.80;;
49175;SDS011;35012;47.200;9.748;2024-02-23T06:06:31;2.07;;;1.97;;
49175;SDS011;35012;47.200;9.748;2024-02-23T06:08:56;2.00;;;1.90;;
49175;SDS011;35012;47.200;9.748;2024-02-23T06:11:22;1.60;;;1.60;;
49175;SDS011;35012;47.200;9.748;2024-02-23T06:13:47;1.70;;;1.70;;
49175;SDS011;35012;47.200;9.748;2024-02-23T06:16:13;1.70;;;1.70;;
49175;SDS011;35012;47.200;9.748;2024-02-23T06:18:38;1.80;;;1.80;;
49175;SDS011;35012;47.200;9.748;2024-02-23T06:21:13;2.00;;;1.90;;
49175;SDS011;35012;47.200;9.748;2024-02-23T06:23:40;2.00;;;1.90;;
49175;SDS011;35012;47.200;9.748;2024-02-23T06:26:06;2.20;;;2.10;;
49175;SDS011;35012;47.200;9.748;2024-02-23T06:28:31;2.30;;;2.20;;
49175;SDS011;35012;47.200;9.748;2024-02-23T06:30:58;2.33;;;2.23;;
49175;SDS011;35012;47.200;9.748;2024-02-23T06:33:23;2.43;;;2.33;;
49175;SDS011;35012;47.200;9.748;2024-02-23T06:35:49;2.40;;;2.30;;
49175;SDS011;35012;47.200;9.748;2024-02-23T06:38:15;2.10;;;2.00;;
49175;SDS011;35012;47.200;9.748;2024-02-23T06:40:41;2.13;;;2.03;;
49175;SDS011;35012;47.200;9.748;2024-02-23T06:43:07;1.80;;;1.80;;
49175;SDS011;35012;47.200;9.748;2024-02-23T06:45:32;1.80;;;1.80;;
49175;SDS011;35012;47.200;9.748;2024-02-23T06:47:58;2.00;;;1.90;;
49175;SDS011;35012;47.200;9.748;2024-02-23T06:50:23;1.80;;;1.80;;
49175;SDS011;35012;47.200;9.748;2024-02-23T06:52:49;2.00;;;1.90;;
49175;SDS011;35012;47.200;9.748;2024-02-23T06:55:14;2.00;;;1.90;;
49175;SDS011;35012;47.200;9.748;2024-02-23T06:57:41;2.10;;;2.00;;
49175;SDS011;35012;47.200;9.748;2024-02-23T07:00:07;1.90;;;1.80;;
49175;SDS011;35012;47.200;9.748;2024-02-23T07:02:33;2.20;;;2.10;;
49175;SDS011;35012;47.200;9.748;2024-02-23T07:05:01;2.30;;;2.20;;
49175;SDS011;35012;47.200;9.748;2024-02-23T07:07:29;2.23;;;2.13;;
49175;SDS011;35012;47.200;9.748;2024-02-23T07:09:56;2.00;;;1.90;;
49175;SDS011;35012;47.200;9.748;2024-02-23T07:12:21;1.90;;;1.80;;
49175;SDS011;35012;47.200;9.748;2024-02-23T07:14:47;1.97;;;1.90;;
49175;SDS011;35012;47.200;9.748;2024-02-23T07:17:16;1.93;;;1.87;;
49175;SDS011;35012;47.200;9.748;2024-02-23T07:19:42;2.20;;;2.10;;
49175;SDS011;35012;47.200;9.748;2024-02-23T07:22:07;2.10;;;2.00;;
49175;SDS011;35012;47.200;9.748;2024-02-23T07:24:33;2.20;;;2.10;;
49175;SDS011;35012;47.200;9.748;2024-02-23T07:26:58;2.47;;;2.37;;
49175;SDS011;35012;47.200;9.748;2024-02-23T07:29:24;2.03;;;1.93;;
49175;SDS011;35012;47.200;9.748;2024-02-23T07:31:49;2.30;;;2.20;;
49175;SDS011;35012;47.200;9.748;2024-02-23T07:34:15;2.17;;;2.07;;
49175;SDS011;35012;47.200;9.748;2024-02-23T07:36:40;2.20;;;2.10;;
49175;SDS011;35012;47.200;9.748;2024-02-23T07:39:08;2.50;;;2.40;;
49175;SDS011;35012;47.200;9.748;2024-02-23T07:41:33;2.70;;;2.60;;
49175;SDS011;35012;47.200;9.748;2024-02-23T07:43:59;2.80;;;2.70;;
49175;SDS011;35012;47.200;9.748;2024-02-23T07:46:24;2.50;;;2.40;;
49175;SDS011;35012;47.200;9.748;2024-02-23T07:48:50;2.50;;;2.40;;
49175;SDS011;35012;47.200;9.748;2024-02-23T07:51:15;2.40;;;2.30;;
49175;SDS011;35012;47.200;9.748;2024-02-23T07:53:41;2.20;;;2.10;;
49175;SDS011;35012;47.200;9.748;2024-02-23T07:56:09;2.30;;;2.20;;
49175;SDS011;35012;47.200;9.748;2024-02-23T07:58:35;2.17;;;2.07;;
49175;SDS011;35012;47.200;9.748;2024-02-23T08:01:01;2.40;;;2.30;;
49175;SDS011;35012;47.200;9.748;2024-02-23T08:03:26;2.33;;;2.23;;
49175;SDS011;35012;47.200;9.748;2024-02-23T08:05:52;2.50;;;2.40;;
49175;SDS011;35012;47.200;9.748;2024-02-23T08:08:17;2.30;;;2.20;;
49175;SDS011;35012;47.200;9.748;2024-02-23T08:10:43;2.30;;;2.20;;
49175;SDS011;35012;47.200;9.748;2024-02-23T08:13:09;8.23;;;4.63;;
49175;SDS011;35012;47.200;9.748;2024-02-23T08:15:35;3.70;;;3.50;;
49175;SDS011;35012;47.200;9.748;2024-02-23T08:18:01;2.40;;;2.30;;
49175;SDS011;35012;47.200;9.748;2024-02-23T08:20:27;3.30;;;2.80;;
49175;SDS011;35012;47.200;9.748;2024-02-23T08:22:52;2.37;;;2.27;;
49175;SDS011;35012;47.200;9.748;2024-02-23T08:25:18;2.53;;;2.43;;
49175;SDS011;35012;47.200;9.748;2024-02-23T08:27:43;2.43;;;2.23;;
49175;SDS011;35012;47.200;9.748;2024-02-23T08:30:09;2.50;;;2.40;;
49175;SDS011;35012;47.200;9.748;2024-02-23T08:32:36;2.50;;;2.40;;
49175;SDS011;35012;47.200;9.748;2024-02-23T08:35:01;2.70;;;2.60;;
49175;SDS011;35012;47.200;9.748;2024-02-23T08:37:27;2.30;;;2.20;;
49175;SDS011;35012;47.200;9.748;2024-02-23T08:39:53;2.33;;;2.23;;
49175;SDS011;35012;47.200;9.748;2024-02-23T08:42:19;2.20;;;2.10;;
49175;SDS011;35012;47.200;9.748;2024-02-23T08:44:45;2.47;;;2.37;;
49175;SDS011;35012;47.200;9.748;2024-02-23T08:47:10;2.97;;;2.87;;
49175;SDS011;35012;47.200;9.748;2024-02-23T08:49:36;2.73;;;2.63;;
49175;SDS011;35012;47.200;9.748;2024-02-23T08:52:02;1.80;;;1.80;;
49175;SDS011;35012;47.200;9.748;2024-02-23T08:54:29;2.00;;;1.90;;
49175;SDS011;35012;47.200;9.748;2024-02-23T08:56:54;2.00;;;1.90;;
49175;SDS011;35012;47.200;9.748;2024-02-23T08:59:20;2.00;;;1.90;;
49175;SDS011;35012;47.200;9.748;2024-02-23T09:01:45;2.10;;;2.00;;
49175;SDS011;35012;47.200;9.748;2024-02-23T09:04:12;2.07;;;1.97;;
49175;SDS011;35012;47.200;9.748;2024-02-23T09:06:38;2.00;;;1.90;;
49175;SDS011;35012;47.200;9.748;2024-02-23T09:09:03;2.10;;;2.00;;
49175;SDS011;35012;47.200;9.748;2024-02-23T09:11:29;2.20;;;2.10;;
49175;SDS011;35012;47.200;9.748;2024-02-23T09:13:55;2.00;;;1.90;;
49175;SDS011;35012;47.200;9.748;2024-02-23T09:16:20;2.10;;;2.00;;
49175;SDS011;35012;47.200;9.748;2024-02-23T09:18:48;2.20;;;2.10;;
49175;SDS011;35012;47.200;9.748;2024-02-23T09:21:14;2.10;;;2.03;;
49175;SDS011;35012;47.200;9.748;2024-02-23T09:23:39;2.47;;;2.37;;
49175;SDS011;35012;47.200;9.748;2024-02-23T09:26:11;2.30;;;2.20;;
49175;SDS011;35012;47.200;9.748;2024-02-23T09:28:37;2.60;;;2.50;;
49175;SDS011;35012;47.200;9.748;2024-02-23T09:31:02;2.23;;;2.13;;
49175;SDS011;35012;47.200;9.748;2024-02-23T09:33:29;2.20;;;2.10;;
49175;SDS011;35012;47.200;9.748;2024-02-23T09:35:55;2.60;;;2.50;;
49175;SDS011;35012;47.200;9.748;2024-02-23T09:38:21;2.83;;;2.73;;
49175;SDS011;35012;47.200;9.748;2024-02-23T09:40:49;3.70;;;3.60;;
49175;SDS011;35012;47.200;9.748;2024-02-23T09:43:16;2.70;;;2.60;;
49175;SDS011;35012;47.200;9.748;2024-02-23T09:45:42;3.40;;;3.30;;
49175;SDS011;35012;47.200;9.748;2024-02-23T09:48:07;2.70;;;2.60;;
49175;SDS011;35012;47.200;9.748;2024-02-23T09:50:35;3.10;;;3.00;;
49175;SDS011;35012;47.200;9.748;2024-02-23T09:53:03;2.47;;;2.37;;
49175;SDS011;35012;47.200;9.748;2024-02-23T09:55:29;2.63;;;2.53;;
49175;SDS011;35012;47.200;9.748;2024-02-23T09:57:55;3.00;;;2.90;;
49175;SDS011;35012;47.200;9.748;2024-02-23T10:00:23;2.40;;;2.30;;
49175;SDS011;35012;47.200;9.748;2024-02-23T10:02:49;2.57;;;2.47;;
49175;SDS011;35012;47.200;9.748;2024-02-23T10:05:15;3.07;;;2.97;;
49175;SDS011;35012;47.200;9.748;2024-02-23T10:07:42;3.30;;;3.10;;
49175;SDS011;35012;47.200;9.748;2024-02-23T10:10:09;2.87;;;2.77;;
49175;SDS011;35012;47.200;9.748;2024-02-23T10:12:36;2.50;;;2.40;;
49175;SDS011;35012;47.200;9.748;2024-02-23T10:15:02;3.00;;;2.90;;
49175;SDS011;35012;47.200;9.748;2024-02-23T10:17:29;2.90;;;2.80;;
49175;SDS011;35012;47.200;9.748;2024-02-23T10:19:55;3.40;;;3.30;;
49175;SDS011;35012;47.200;9.748;2024-02-23T10:22:22;2.73;;;2.63;;
49175;SDS011;35012;47.200;9.748;2024-02-23T10:24:50;2.30;;;2.20;;
49175;SDS011;35012;47.200;9.748;2024-02-23T10:27:16;2.40;;;2.30;;
49175;SDS011;35012;47.200;9.748;2024-02-23T10:29:42;2.80;;;2.70;;
49175;SDS011;35012;47.200;9.748;2024-02-23T10:32:07;2.70;;;2.60;;
49175;SDS011;35012;47.200;9.748;2024-02-23T10:34:37;2.60;;;2.50;;
49175;SDS011;35012;47.200;9.748;2024-02-23T10:37:04;2.53;;;2.43;;
49175;SDS011;35012;47.200;9.748;2024-02-23T10:39:31;2.50;;;2.40;;
49175;SDS011;35012;47.200;9.748;2024-02-23T10:42:01;2.47;;;2.37;;
49175;SDS011;35012;47.200;9.748;2024-02-23T10:44:28;2.30;;;2.20;;
49175;SDS011;35012;47.200;9.748;2024-02-23T10:46:55;3.00;;;2.87;;
49175;SDS011;35012;47.200;9.748;2024-02-23T10:49:22;2.20;;;2.10;;
49175;SDS011;35012;47.200;9.748;2024-02-23T10:51:51;2.20;;;2.10;;
49175;SDS011;35012;47.200;9.748;2024-02-23T10:54:17;2.27;;;2.17;;
49175;SDS011;35012;47.200;9.748;2024-02-23T10:56:49;2.37;;;2.27;;
49175;SDS011;35012;47.200;9.748;2024-02-23T10:59:15;2.20;;;2.10;;
49175;SDS011;35012;47.200;9.748;2024-02-23T11:01:47;2.20;;;2.10;;
49175;SDS011;35012;47.200;9.748;2024-02-23T11:04:14;1.80;;;1.80;;
49175;SDS011;35012;47.200;9.748;2024-02-23T11:06:41;1.80;;;1.80;;
49175;SDS011;35012;47.200;9.748;2024-02-23T11:09:07;2.20;;;2.10;;
49175;SDS011;35012;47.200;9.748;2024-02-23T11:11:36;2.00;;;1.90;;
49175;SDS011;35012;47.200;9.748;2024-02-23T11:14:02;1.83;;;1.77;;
49175;SDS011;35012;47.200;9.748;2024-02-23T11:16:29;2.13;;;2.03;;
49175;SDS011;35012;47.200;9.748;2024-02-23T11:19:06;2.17;;;2.00;;
49175;SDS011;35012;47.200;9.748;2024-02-23T11:21:37;2.30;;;2.20;;
49175;SDS011;35012;47.200;9.748;2024-02-23T11:24:03;2.13;;;2.03;;
49175;SDS011;35012;47.200;9.748;2024-02-23T11:26:29;1.80;;;1.80;;
49175;SDS011;35012;47.200;9.748;2024-02-23T11:28:55;2.10;;;2.00;;
49175;SDS011;35012;47.200;9.748;2024-02-23T11:31:21;1.80;;;1.70;;
49175;SDS011;35012;47.200;9.748;2024-02-23T11:33:50;2.00;;;1.90;;
49175;SDS011;35012;47.200;9.748;2024-02-23T11:36:34;1.40;;;1.40;;
49175;SDS011;35012;47.200;9.748;2024-02-23T11:39:01;1.80;;;1.80;;
49175;SDS011;35012;47.200;9.748;2024-02-23T11:41:28;1.60;;;1.60;;
49175;SDS011;35012;47.200;9.748;2024-02-23T11:43:54;1.43;;;1.43;;
49175;SDS011;35012;47.200;9.748;2024-02-23T11:46:28;1.40;;;1.40;;
49175;SDS011;35012;47.200;9.748;2024-02-23T11:48:54;1.50;;;1.50;;
49175;SDS011;35012;47.200;9.748;2024-02-23T11:51:20;1.10;;;1.10;;
49175;SDS011;35012;47.200;9.748;2024-02-23T11:53:46;1.60;;;1.60;;
49175;SDS011;35012;47.200;9.748;2024-02-23T11:56:13;1.70;;;1.70;;
49175;SDS011;35012;47.200;9.748;2024-02-23T11:58:42;2.10;;;2.00;;
49175;SDS011;35012;47.200;9.748;2024-02-23T12:01:07;2.13;;;2.03;;
49175;SDS011;35012;47.200;9.748;2024-02-23T12:03:33;1.40;;;1.40;;
49175;SDS011;35012;47.200;9.748;2024-02-23T12:05:59;1.50;;;1.50;;
49175;SDS011;35012;47.200;9.748;2024-02-23T12:08:25;1.60;;;1.60;;
49175;SDS011;35012;47.200;9.748;2024-02-23T12:10:53;1.40;;;1.40;;
49175;SDS011;35012;47.200;9.748;2024-02-23T12:13:19;1.40;;;1.40;;
49175;SDS011;35012;47.200;9.748;2024-02-23T12:15:45;1.50;;;1.50;;
49175;SDS011;35012;47.200;9.748;2024-02-23T12:18:11;1.60;;;1.60;;
49175;SDS011;35012;47.200;9.748;2024-02-23T12:20:36;1.40;;;1.40;;
49175;SDS011;35012;47.200;9.748;2024-02-23T12:23:02;1.50;;;1.50;;
49175;SDS011;35012;47.200;9.748;2024-02-23T12:25:28;1.80;;;1.80;;
49175;SDS011;35012;47.200;9.748;2024-02-23T12:27:54;1.50;;;1.50;;
49175;SDS011;35012;47.200;9.748;2024-02-23T12:30:21;1.77;;;1.77;;
49175;SDS011;35012;47.200;9.748;2024-02-23T12:32:46;1.70;;;1.70;;
49175;SDS011;35012;47.200;9.748;2024-02-23T12:35:12;1.60;;;1.60;;
49175;SDS011;35012;47.200;9.748;2024-02-23T12:37:38;1.93;;;1.87;;
49175;SDS011;35012;47.200;9.748;2024-02-23T12:40:04;1.63;;;1.63;;
49175;SDS011;35012;47.200;9.748;2024-02-23T12:42:30;1.53;;;1.53;;
49175;SDS011;35012;47.200;9.748;2024-02-23T12:44:56;1.50;;;1.50;;
49175;SDS011;35012;47.200;9.748;2024-02-23T12:47:21;1.37;;;1.37;;
49175;SDS011;35012;47.200;9.748;2024-02-23T12:49:47;1.40;;;1.40;;
49175;SDS011;35012;47.200;9.748;2024-02-23T12:52:12;1.40;;;1.40;;
49175;SDS011;35012;47.200;9.748;2024-02-23T12:54:39;1.57;;;1.57;;
49175;SDS011;35012;47.200;9.748;2024-02-23T12:57:04;1.50;;;1.50;;
49175;SDS011;35012;47.200;9.748;2024-02-23T12:59:30;1.60;;;1.60;;
49175;SDS011;35012;47.200;9.748;2024-02-23T13:01:55;1.40;;;1.40;;
49175;SDS011;35012;47.200;9.748;2024-02-23T13:04:22;1.43;;;1.43;;
49175;SDS011;35012;47.200;9.748;2024-02-23T13:06:47;1.50;;;1.50;;
49175;SDS011;35012;47.200;9.748;2024-02-23T13:09:13;2.17;;;2.07;;
49175;SDS011;35012;47.200;9.748;2024-02-23T13:11:39;1.50;;;1.50;;
49175;SDS011;35012;47.200;9.748;2024-02-23T13:14:05;1.20;;;1.20;;
49175;SDS011;35012;47.200;9.748;2024-02-23T13:16:31;1.50;;;1.50;;
49175;SDS011;35012;47.200;9.748;2024-02-23T13:18:56;1.20;;;1.20;;
49175;SDS011;35012;47.200;9.748;2024-02-23T13:21:22;1.33;;;1.33;;
49175;SDS011;35012;47.200;9.748;2024-02-23T13:23:49;1.30;;;1.30;;
49175;SDS011;35012;47.200;9.748;2024-02-23T13:26:14;1.30;;;1.30;;
49175;SDS011;35012;47.200;9.748;2024-02-23T13:28:43;1.30;;;1.30;;
49175;SDS011;35012;47.200;9.748;2024-02-23T13:31:09;1.60;;;1.60;;
49175;SDS011;35012;47.200;9.748;2024-02-23T13:33:34;1.40;;;1.40;;
49175;SDS011;35012;47.200;9.748;2024-02-23T13:36:00;1.43;;;1.43;;
49175;SDS011;35012;47.200;9.748;2024-02-23T13:38:26;1.50;;;1.50;;
49175;SDS011;35012;47.200;9.748;2024-02-23T13:40:51;1.37;;;1.37;;
49175;SDS011;35012;47.200;9.748;2024-02-23T13:43:17;1.50;;;1.50;;
49175;SDS011;35012;47.200;9.748;2024-02-23T13:45:51;1.60;;;1.60;;
49175;SDS011;35012;47.200;9.748;2024-02-23T13:48:18;1.70;;;1.60;;
49175;SDS011;35012;47.200;9.748;2024-02-23T13:50:44;1.40;;;1.40;;
49175;SDS011;35012;47.200;9.748;2024-02-23T13:53:11;1.40;;;1.40;;
49175;SDS011;35012;47.200;9.748;2024-02-23T13:55:39;1.40;;;1.40;;
49175;SDS011;35012;47.200;9.748;2024-02-23T13:58:07;1.37;;;1.37;;
49175;SDS011;35012;47.200;9.748;2024-02-23T14:00:32;1.50;;;1.50;;
49175;SDS011;35012;47.200;9.748;2024-02-23T14:02:57;1.43;;;1.43;;
49175;SDS011;35012;47.200;9.748;2024-02-23T14:05:23;1.60;;;1.60;;
49175;SDS011;35012;47.200;9.748;2024-02-23T14:07:50;1.40;;;1.40;;
49175;SDS011;35012;47.200;9.748;2024-02-23T14:10:16;1.53;;;1.53;;
49175;SDS011;35012;47.200;9.748;2024-02-23T14:12:42;1.50;;;1.50;;
49175;SDS011;35012;47.200;9.748;2024-02-23T14:15:08;1.50;;;1.50;;
49175;SDS011;35012;47.200;9.748;2024-02-23T14:17:34;1.50;;;1.50;;
49175;SDS011;35012;47.200;9.748;2024-02-23T14:20:00;1.30;;;1.30;;
49175;SDS011;35012;47.200;9.748;2024-02-23T14:22:26;1.67;;;1.57;;
49175;SDS011;35012;47.200;9.748;2024-02-23T14:24:53;1.70;;;1.60;;
49175;SDS011;35012;47.200;9.748;2024-02-23T14:27:18;1.30;;;1.30;;
49175;SDS011;35012;47.200;9.748;2024-02-23T14:29:44;1.30;;;1.30;;
49175;SDS011;35012;47.200;9.748;2024-02-23T14:32:10;1.70;;;1.70;;
49175;SDS011;35012;47.200;9.748;2024-02-23T14:34:37;1.83;;;1.73;;
49175;SDS011;35012;47.200;9.748;2024-02-23T14:37:02;1.50;;;1.50;;
49175;SDS011;35012;47.200;9.748;2024-02-23T14:39:28;1.50;;;1.50;;
49175;SDS011;35012;47.200;9.748;2024-02-23T14:41:53;1.20;;;1.20;;
49175;SDS011;35012;47.200;9.748;2024-02-23T14:44:19;1.40;;;1.40;;